Time;durP1;ratioP1;P1;durP2;ratioP2;P2;SDS_P1;SDS_P2;PMS_P1;PMS_P2;Temp;Humidity;BMP_temperature;BMP_pressure;BME280_temperature;BME280_humidity;BME280_pressure;Samples;Min_cycle;Max_cycle;Signal;HPM_P1;HPM_P2
2023/01/01 00:00:13;;;;;;;204.93;126.00;;;;;;;3.26;100.00;101480.06;1454199;90;21468;-85
2023/01/01 00:02:39;;;;;;;200.60;130.27;;;;;;;3.26;100.00;101490.53;1449833;90;22204;-85
2023/01/01 00:05:07;;;;;;;174.33;113.33;;;;;;;3.18;100.00;101496.12;1447969;90;21398;-85
2023/01/01 00:07:33;;;;;;;181.90;113.90;;;;;;;3.18;100.00;101496.12;1450845;88;22410;-84
2023/01/01 00:12:44;;;;;;;192.23;118.53;;;;;;;3.18;100.00;101501.82;1449612;90;22163;-86
2023/01/01 00:15:10;;;;;;;189.47;117.23;;;;;;;3.26;100.00;101491.84;1451917;90;22948;-85
2023/01/01 00:17:36;;;;;;;184.43;112.53;;;;;;;3.26;100.00;101491.84;1459103;90;21532;-85
2023/01/01 00:20:03;;;;;;;179.33;116.43;;;;;;;3.26;100.00;101491.84;1452314;90;22049;-84
2023/01/01 00:22:29;;;;;;;179.70;115.23;;;;;;;3.27;100.00;101496.14;1458797;90;21471;-83
2023/01/01 00:24:55;;;;;;;168.17;107.90;;;;;;;3.27;100.00;101498.75;1452467;90;22199;-88
2023/01/01 00:27:21;;;;;;;165.30;102.47;;;;;;;3.27;100.00;101498.75;1455150;90;22049;-86
2023/01/01 00:29:47;;;;;;;154.23;99.17;;;;;;;3.24;100.00;101496.28;1450599;90;22089;-87
2023/01/01 00:32:13;;;;;;;162.97;101.53;;;;;;;3.25;100.00;101496.66;1451537;90;22104;-89
2023/01/01 00:34:40;;;;;;;144.80;98.57;;;;;;;3.26;100.00;101494.45;1453953;90;22157;-86
2023/01/01 00:37:06;;;;;;;159.07;101.20;;;;;;;3.26;100.00;101500.99;1452428;89;22070;-85
2023/01/01 00:39:32;;;;;;;162.00;105.80;;;;;;;3.26;100.00;101500.99;1455953;89;21360;-86
2023/01/01 00:41:58;;;;;;;160.70;104.43;;;;;;;3.24;100.00;101516.75;1454539;89;21985;-86
2023/01/01 00:44:24;;;;;;;162.40;107.87;;;;;;;3.15;100.00;101504.12;1452719;89;23179;-86
2023/01/01 00:46:50;;;;;;;149.37;101.70;;;;;;;3.15;100.00;101504.12;1457249;89;21442;-87
2023/01/01 00:49:17;;;;;;;149.83;100.60;;;;;;;3.14;100.00;101505.05;1449886;89;22147;-86
2023/01/01 00:51:45;;;;;;;138.53;89.90;;;;;;;3.14;100.00;101505.05;1442745;89;21434;-89
2023/01/01 00:54:12;;;;;;;137.30;83.90;;;;;;;3.20;100.00;101505.22;1453448;89;22299;-82
2023/01/01 00:56:40;;;;;;;120.33;78.90;;;;;;;3.25;100.00;101505.82;1450946;89;22107;-82
2023/01/01 00:59:06;;;;;;;114.40;74.70;;;;;;;3.29;100.00;101510.00;1451688;89;22362;-85
2023/01/01 01:01:33;;;;;;;115.03;74.17;;;;;;;3.35;100.00;101505.77;1453847;88;22438;-82
2023/01/01 01:04:01;;;;;;;110.37;72.87;;;;;;;3.54;100.00;101517.05;1451495;89;22055;-84
2023/01/01 01:06:27;;;;;;;114.73;76.50;;;;;;;3.54;100.00;101517.05;1426251;89;22204;-82
2023/01/01 01:08:53;;;;;;;115.07;76.40;;;;;;;3.55;100.00;101520.03;1452471;89;21376;-84
2023/01/01 01:11:23;;;;;;;110.67;76.83;;;;;;;3.49;100.00;101520.34;1441201;90;21442;-83
2023/01/01 01:13:53;;;;;;;126.67;76.70;;;;;;;3.45;100.00;101520.09;1444726;90;21354;-85
2023/01/01 01:16:27;;;;;;;113.40;73.87;;;;;;;3.46;100.00;101514.42;1390979;89;21442;-85
2023/01/01 01:18:58;;;;;;;115.87;79.60;;;;;;;3.38;100.00;101513.47;1453133;89;21452;-83
2023/01/01 01:21:26;;;;;;;133.00;86.97;;;;;;;3.18;100.00;101517.52;1449840;90;22271;-81
2023/01/01 01:23:53;;;;;;;127.33;81.90;;;;;;;3.12;100.00;101502.49;1451950;89;21530;-85
2023/01/01 01:26:27;;;;;;;121.43;83.33;;;;;;;3.12;100.00;101502.49;1452533;89;22226;-85
2023/01/01 01:28:53;;;;;;;122.57;81.30;;;;;;;3.08;100.00;101512.73;1452043;89;21452;-85
2023/01/01 01:31:21;;;;;;;112.23;73.50;;;;;;;3.07;100.00;101507.09;1449010;89;22139;-85
2023/01/01 01:33:48;;;;;;;113.33;76.77;;;;;;;3.04;100.00;101500.70;1449348;89;21549;-84
2023/01/01 01:36:17;;;;;;;109.37;75.67;;;;;;;3.09;100.00;101496.11;1450960;89;22380;-84
2023/01/01 01:38:43;;;;;;;118.30;78.93;;;;;;;3.14;100.00;101501.13;1454469;89;21509;-88
2023/01/01 01:41:13;;;;;;;112.97;76.03;;;;;;;3.16;100.00;101492.29;1447748;90;22062;-85
2023/01/01 01:43:50;;;;;;;109.53;74.33;;;;;;;3.19;100.00;101498.27;1456245;90;22040;-84
2023/01/01 01:46:25;;;;;;;117.70;76.33;;;;;;;3.20;100.00;101491.67;1455559;89;23013;-88
2023/01/01 01:48:53;;;;;;;88.83;58.53;;;;;;;3.20;100.00;101490.83;1417697;92;23526;-88
2023/01/01 01:51:29;;;;;;;82.87;53.87;;;;;;;3.25;100.00;101480.97;1409085;92;21848;-85
2023/01/01 01:54:01;;;;;;;79.23;50.60;;;;;;;3.25;100.00;101456.11;1420208;92;21979;-88
2023/01/01 01:56:33;;;;;;;62.10;39.67;;;;;;;3.37;100.00;101477.30;1421067;92;21332;-85
2023/01/01 01:58:59;;;;;;;60.27;40.63;;;;;;;3.54;100.00;101486.94;1416207;92;22406;-84
2023/01/01 02:01:25;;;;;;;67.80;42.03;;;;;;;3.73;100.00;101483.38;1421276;92;22272;-84
2023/01/01 02:03:59;;;;;;;57.30;36.30;;;;;;;3.89;100.00;101484.31;1421797;92;22127;-85
2023/01/01 02:06:28;;;;;;;76.17;50.23;;;;;;;4.03;100.00;101496.70;1435556;92;21619;-87
2023/01/01 02:08:58;;;;;;;71.83;48.70;;;;;;;4.11;100.00;101488.42;1420771;92;21324;-84
2023/01/01 02:11:24;;;;;;;65.60;44.77;;;;;;;4.15;100.00;101491.28;1416741;92;22411;-85
2023/01/01 02:13:52;;;;;;;64.27;41.93;;;;;;;4.18;100.00;101488.50;1423904;91;21457;-85
2023/01/01 02:16:45;;;;;;;59.73;40.20;;;;;;;4.21;100.00;101494.89;1425390;91;21539;-86
2023/01/01 02:19:26;;;;;;;63.77;41.90;;;;;;;4.23;100.00;101495.63;1422656;92;22470;-85
2023/01/01 02:22:15;;;;;;;59.85;39.18;;;;;;;4.28;100.00;101492.31;1418285;92;22287;-86
2023/01/01 02:25:09;;;;;;;52.07;34.33;;;;;;;4.28;100.00;101492.31;1422116;92;21412;-86
2023/01/01 02:27:53;;;;;;;41.07;26.33;;;;;;;4.30;100.00;101486.06;1447875;89;22000;-84
2023/01/01 02:30:20;;;;;;;41.63;28.57;;;;;;;4.36;100.00;101486.20;1450013;89;21508;-86
2023/01/01 02:32:55;;;;;;;43.57;27.93;;;;;;;4.49;100.00;101486.41;1443573;89;22366;-84
2023/01/01 02:35:37;;;;;;;44.53;30.20;;;;;;;4.59;100.00;101482.34;1441464;90;21589;-84
2023/01/01 02:38:21;;;;;;;47.17;32.37;;;;;;;4.70;100.00;101485.70;1447715;89;21524;-84
2023/01/01 02:40:51;;;;;;;47.00;33.00;;;;;;;4.75;100.00;101493.70;1452924;89;21514;-84
2023/01/01 02:43:17;;;;;;;63.35;41.18;;;;;;;4.62;100.00;101486.58;1444238;89;21612;-85
2023/01/01 02:45:43;;;;;;;62.20;38.93;;;;;;;4.62;100.00;101486.58;1455334;89;21390;-85
2023/01/01 02:48:46;;;;;;;50.33;36.33;;;;;;;4.61;100.00;101496.70;1458159;89;21494;-85
2023/01/01 02:51:36;;;;;;;49.83;33.47;;;;;;;4.56;100.00;101494.31;1454834;89;21723;-86
2023/01/01 02:54:20;;;;;;;48.03;33.53;;;;;;;4.46;100.00;101500.53;1452447;89;22492;-84
2023/01/01 02:57:15;;;;;;;43.30;30.07;;;;;;;4.41;100.00;101503.84;1448348;89;21420;-79
2023/01/01 03:00:30;;;;;;;41.60;27.27;;;;;;;4.41;100.00;101497.30;1437569;89;21450;-83
2023/01/01 03:03:29;;;;;;;41.03;25.37;;;;;;;4.46;100.00;101489.16;1451116;90;21442;-84
2023/01/01 03:06:22;;;;;;;36.20;25.70;;;;;;;4.56;100.00;101488.23;1451936;90;21493;-85
2023/01/01 03:09:12;;;;;;;35.17;23.33;;;;;;;4.66;100.00;101493.34;1451430;89;21456;-85
2023/01/01 03:12:07;;;;;;;40.80;25.17;;;;;;;4.75;100.00;101488.92;1429789;89;22567;-84
2023/01/01 03:14:55;;;;;;;45.17;29.53;;;;;;;4.87;100.00;101490.86;1450903;89;21641;-84
2023/01/01 03:17:42;;;;;;;35.33;25.40;;;;;;;4.88;100.00;101493.86;1451776;89;21420;-84
2023/01/01 03:20:17;;;;;;;38.03;25.93;;;;;;;4.82;100.00;101498.13;1451186;89;21582;-84
2023/01/01 03:22:46;;;;;;;36.00;23.93;;;;;;;4.79;100.00;101500.92;1450151;89;21618;-84
2023/01/01 03:25:26;;;;;;;42.07;28.57;;;;;;;4.67;100.00;101508.16;1450832;89;21375;-83
2023/01/01 03:28:01;;;;;;;38.70;25.47;;;;;;;4.51;100.00;101501.09;1450825;90;21656;-83
2023/01/01 03:30:31;;;;;;;33.10;23.97;;;;;;;4.43;100.00;101511.61;1452259;90;21421;-84
2023/01/01 03:33:07;;;;;;;32.00;23.27;;;;;;;4.37;100.00;101507.54;1450548;90;22189;-85
2023/01/01 03:35:50;;;;;;;37.50;24.57;;;;;;;4.30;100.00;101508.81;1446527;90;21568;-85
2023/01/01 03:38:30;;;;;;;35.93;23.43;;;;;;;4.24;100.00;101509.13;1454834;89;21456;-81
2023/01/01 03:41:02;;;;;;;36.67;25.53;;;;;;;4.20;100.00;101506.27;1452272;90;21317;-85
2023/01/01 03:43:56;;;;;;;45.27;28.13;;;;;;;4.16;100.00;101510.84;1455989;89;21494;-84
2023/01/01 03:46:27;;;;;;;52.07;29.10;;;;;;;4.08;100.00;101502.52;1448615;89;22161;-85
2023/01/01 03:48:57;;;;;;;44.50;25.95;;;;;;;4.01;100.00;101509.02;1455537;89;21596;-86
2023/01/01 03:51:53;;;;;;;40.60;24.60;;;;;;;4.02;100.00;101516.78;1450380;90;21531;-85
2023/01/01 03:54:41;;;;;;;44.40;26.57;;;;;;;4.07;100.00;101523.95;1452680;90;21412;-85
2023/01/01 03:57:43;;;;;;;99.00;64.60;;;;;;;4.12;100.00;101516.33;1454104;90;21531;-83
2023/01/01 04:00:29;;;;;;;40.43;26.23;;;;;;;4.12;100.00;101513.72;1451832;90;21331;-82
2023/01/01 04:03:10;;;;;;;46.13;28.67;;;;;;;4.10;100.00;101515.55;1450855;90;21427;-89
2023/01/01 04:05:39;;;;;;;41.92;25.95;;;;;;;4.05;100.00;101515.31;1449903;89;21494;-85
2023/01/01 04:08:07;;;;;;;40.90;27.40;;;;;;;3.91;100.00;101520.41;1443026;90;22381;-89
2023/01/01 04:10:37;;;;;;;47.93;32.63;;;;;;;3.72;100.00;101515.27;1443960;90;21567;-87
2023/01/01 04:13:11;;;;;;;40.53;27.60;;;;;;;3.62;100.00;101515.33;1450413;90;22462;-90
2023/01/01 04:15:37;;;;;;;40.83;25.50;;;;;;;3.55;100.00;101518.72;1447831;90;21464;-87
2023/01/01 04:18:04;;;;;;;35.27;24.17;;;;;;;3.34;100.00;101516.70;1451201;88;21420;-85
2023/01/01 04:20:31;;;;;;;33.60;21.97;;;;;;;3.31;100.00;101508.13;1449986;90;22432;-86
2023/01/01 04:23:00;;;;;;;32.13;21.00;;;;;;;3.31;100.00;101508.13;1453369;90;21324;-87
2023/01/01 04:25:28;;;;;;;34.33;20.90;;;;;;;3.25;100.00;101517.59;1455848;90;22117;-85
2023/01/01 04:27:54;;;;;;;36.23;22.70;;;;;;;3.06;100.00;101517.17;1452286;90;22991;-86
2023/01/01 04:30:20;;;;;;;35.10;23.50;;;;;;;3.06;100.00;101517.17;1450681;90;21413;-84
2023/01/01 04:32:47;;;;;;;39.10;23.70;;;;;;;3.16;100.00;101522.38;1459227;90;22067;-83
2023/01/01 04:35:14;;;;;;;38.63;25.03;;;;;;;3.28;100.00;101522.67;1451408;90;23032;-83
2023/01/01 04:37:43;;;;;;;74.53;55.90;;;;;;;3.41;100.00;101522.48;1457652;90;22158;-84
2023/01/01 04:40:11;;;;;;;47.97;34.07;;;;;;;3.57;100.00;101526.05;1453306;89;22430;-82
2023/01/01 04:42:38;;;;;;;48.47;29.43;;;;;;;3.79;100.00;101523.66;1446893;89;22201;-81
2023/01/01 04:45:06;;;;;;;37.53;24.23;;;;;;;4.00;100.00;101523.90;1447018;89;21791;-83
2023/01/01 04:47:35;;;;;;;38.07;23.37;;;;;;;4.23;100.00;101523.14;1447156;90;21435;-85
2023/01/01 04:50:02;;;;;;;42.90;29.50;;;;;;;4.44;100.00;101515.48;1450422;90;21442;-85
2023/01/01 04:52:28;;;;;;;37.47;25.90;;;;;;;4.64;100.00;101518.81;1451602;90;21360;-84
2023/01/01 04:54:54;;;;;;;35.90;25.93;;;;;;;4.81;100.00;101518.75;1454252;89;21472;-84
2023/01/01 04:57:20;;;;;;;41.80;26.70;;;;;;;4.94;100.00;101511.87;1446617;89;22374;-85
2023/01/01 04:59:47;;;;;;;38.10;24.53;;;;;;;5.08;100.00;101520.77;1447754;89;21404;-84
2023/01/01 05:02:13;;;;;;;30.67;20.80;;;;;;;5.17;100.00;101522.88;1459900;89;22262;-83
2023/01/01 05:04:39;;;;;;;31.07;20.60;;;;;;;5.23;100.00;101525.63;1456620;89;21434;-84
2023/01/01 05:07:06;;;;;;;32.83;21.77;;;;;;;5.24;100.00;101522.93;1451624;90;22111;-84
2023/01/01 05:09:35;;;;;;;47.37;28.87;;;;;;;5.28;100.00;101541.97;1452882;89;22213;-86
2023/01/01 05:12:02;;;;;;;49.00;30.07;;;;;;;5.30;100.00;101544.89;1444835;90;21613;-85
2023/01/01 05:14:28;;;;;;;33.17;25.23;;;;;;;5.34;100.00;101552.96;1446642;89;21663;-85
2023/01/01 05:16:54;;;;;;;33.10;22.87;;;;;;;5.38;100.00;101551.87;1455103;89;21353;-84
2023/01/01 05:19:20;;;;;;;31.57;20.93;;;;;;;5.43;100.00;101554.22;1455403;89;21524;-85
2023/01/01 05:21:46;;;;;;;31.10;20.37;;;;;;;5.49;100.00;101553.87;1458122;89;21633;-83
2023/01/01 05:24:13;;;;;;;54.83;38.93;;;;;;;5.55;100.00;101557.92;1460436;90;21397;-85
2023/01/01 05:26:43;;;;;;;41.30;26.43;;;;;;;5.56;100.00;101562.27;1458571;90;21383;-86
2023/01/01 05:29:09;;;;;;;37.23;24.18;;;;;;;5.45;100.00;101564.17;1448102;89;22241;-85
2023/01/01 05:31:36;;;;;;;35.83;25.27;;;;;;;5.20;100.00;101566.01;1447309;89;21383;-85
2023/01/01 05:34:04;;;;;;;37.10;24.90;;;;;;;4.98;100.00;101566.36;1449035;89;21549;-85
2023/01/01 05:36:37;;;;;;;44.70;29.83;;;;;;;4.77;100.00;101568.34;1454074;90;22337;-86
2023/01/01 05:39:03;;;;;;;47.13;31.50;;;;;;;4.51;100.00;101579.75;1452188;89;21389;-87
2023/01/01 05:41:30;;;;;;;51.70;33.67;;;;;;;4.19;100.00;101585.82;1453117;89;21427;-86
2023/01/01 05:43:56;;;;;;;43.63;29.63;;;;;;;3.89;100.00;101585.61;1452228;89;21494;-86
2023/01/01 05:46:24;;;;;;;45.37;31.60;;;;;;;3.61;100.00;101593.03;1455324;89;21354;-86
2023/01/01 05:48:52;;;;;;;48.20;32.87;;;;;;;3.52;100.00;101603.95;1452442;89;21294;-86
2023/01/01 05:51:24;;;;;;;58.73;34.37;;;;;;;3.41;100.00;101597.53;1451647;88;21582;-85
2023/01/01 05:53:51;;;;;;;53.37;34.53;;;;;;;3.18;100.00;101591.61;1456020;90;21590;-86
2023/01/01 05:56:17;;;;;;;49.97;32.40;;;;;;;3.18;100.00;101591.61;1451162;90;21369;-84
2023/01/01 05:58:44;;;;;;;67.83;31.90;;;;;;;3.06;100.00;101598.27;1454629;90;22405;-83
2023/01/01 06:01:24;;;;;;;40.77;28.93;;;;;;;2.86;100.00;101594.41;1456106;89;21482;-84
2023/01/01 06:03:52;;;;;;;46.63;31.67;;;;;;;2.86;100.00;101594.41;1460801;89;21302;-84
2023/01/01 06:06:27;;;;;;;49.20;31.93;;;;;;;2.83;100.00;101610.23;1445525;90;22021;-83
2023/01/01 06:09:03;;;;;;;55.13;29.87;;;;;;;2.74;100.00;101594.97;1449388;89;21507;-83
2023/01/01 06:11:30;;;;;;;45.20;31.10;;;;;;;2.77;100.00;101596.13;1443421;90;22211;-83
2023/01/01 06:13:59;;;;;;;48.60;34.43;;;;;;;2.74;100.00;101599.73;1454216;89;22975;-83
2023/01/01 06:16:28;;;;;;;50.10;32.30;;;;;;;2.68;100.00;101589.55;1451806;89;23149;-84
2023/01/01 06:18:54;;;;;;;48.47;30.53;;;;;;;2.64;100.00;101599.27;1457171;90;22022;-85
2023/01/01 06:21:23;;;;;;;46.57;30.77;;;;;;;2.62;100.00;101602.44;1449662;90;22051;-84
2023/01/01 06:23:50;;;;;;;38.93;27.93;;;;;;;2.62;100.00;101605.05;1455092;89;22013;-83
2023/01/01 06:26:21;;;;;;;40.23;28.27;;;;;;;2.60;100.00;101605.56;1443856;89;22297;-83
2023/01/01 06:28:48;;;;;;;;;;;;;;;2.60;100.00;101601.64;1454339;89;22009;-84
2023/01/01 06:31:17;;;;;;;42.60;28.10;;;;;;;2.61;100.00;101605.94;1453513;89;20299;-85
2023/01/01 06:33:44;;;;;;;43.50;30.23;;;;;;;2.62;100.00;101599.82;1451261;89;22071;-84
2023/01/01 06:36:14;;;;;;;45.93;31.40;;;;;;;2.62;100.00;101595.90;1458261;89;23467;-84
2023/01/01 06:38:44;;;;;;;51.83;29.23;;;;;;;2.62;100.00;101601.12;1453559;89;22354;-84
2023/01/01 06:41:14;;;;;;;43.20;28.87;;;;;;;2.62;100.00;101601.12;1446085;90;22060;-84
2023/01/01 06:43:41;;;;;;;43.50;29.77;;;;;;;2.66;100.00;101600.52;1451346;89;22093;-86
2023/01/01 06:46:29;;;;;;;43.13;28.83;;;;;;;2.69;100.00;101594.70;1461826;89;21442;-85
2023/01/01 06:49:03;;;;;;;43.30;28.50;;;;;;;2.75;100.00;101600.11;1451196;89;22287;-84
2023/01/01 06:51:34;;;;;;;44.10;28.13;;;;;;;2.78;100.00;101603.05;1453608;89;22093;-87
2023/01/01 06:54:02;;;;;;;40.58;24.07;;;;;;;2.76;100.00;101599.64;1442995;89;22273;-87
2023/01/01 06:56:29;;;;;;;43.30;28.77;;;;;;;2.75;100.00;101608.42;1447434;90;21413;-85
2023/01/01 06:58:56;;;;;;;48.70;30.03;;;;;;;2.74;100.00;101612.80;1453825;90;22190;-85
2023/01/01 07:01:26;;;;;;;39.63;28.50;;;;;;;2.73;100.00;101615.47;1448318;90;22168;-86
2023/01/01 07:03:57;;;;;;;43.70;28.87;;;;;;;2.73;100.00;101618.92;1456076;89;22082;-87
2023/01/01 07:06:24;;;;;;;;;;;;;;;2.78;100.00;101616.13;1455466;89;22249;-84
2023/01/01 07:08:50;;;;;;;49.23;27.30;;;;;;;2.83;100.00;101615.00;1454819;89;20284;-86
2023/01/01 07:11:16;;;;;;;46.33;29.33;;;;;;;2.90;100.00;101620.80;1448778;89;22035;-86
2023/01/01 07:13:43;;;;;;;42.90;28.37;;;;;;;2.94;100.00;101617.14;1455181;89;23129;-85
2023/01/01 07:16:09;;;;;;;43.77;27.40;;;;;;;3.01;100.00;101619.85;1448072;89;22012;-86
2023/01/01 07:18:35;;;;;;;40.73;26.93;;;;;;;3.05;100.00;101625.78;1455080;89;22041;-86
2023/01/01 07:21:04;;;;;;;46.33;31.47;;;;;;;3.07;100.00;101634.42;1453202;89;22015;-86
2023/01/01 07:23:33;;;;;;;55.13;34.10;;;;;;;3.05;100.00;101638.43;1449682;90;22241;-85
2023/01/01 07:26:00;;;;;;;48.10;31.57;;;;;;;3.06;100.00;101641.42;1452002;89;22111;-86
2023/01/01 07:28:27;;;;;;;43.70;28.50;;;;;;;3.01;100.00;101647.31;1457993;89;22023;-85
2023/01/01 07:30:53;;;;;;;44.50;29.83;;;;;;;2.93;100.00;101648.98;1452979;90;22056;-86
2023/01/01 07:33:23;;;;;;;53.10;35.53;;;;;;;2.92;100.00;101648.58;1461993;89;22314;-86
2023/01/01 07:35:49;;;;;;;44.93;29.27;;;;;;;2.94;100.00;101648.52;1456593;89;21324;-85
2023/01/01 07:38:15;;;;;;;44.87;30.73;;;;;;;2.94;100.00;101648.52;1454969;89;21332;-87
2023/01/01 07:40:42;;;;;;;46.97;29.90;;;;;;;2.98;100.00;101644.84;1459438;89;21999;-83
2023/01/01 07:43:09;;;;;;;47.97;30.60;;;;;;;3.09;100.00;101644.36;1458488;89;21569;-87
2023/01/01 07:45:41;;;;;;;60.17;38.57;;;;;;;3.11;100.00;101634.22;1451643;90;21397;-86
2023/01/01 07:48:12;;;;;;;71.57;41.63;;;;;;;3.22;100.00;101639.41;1450866;90;21516;-87
2023/01/01 07:50:39;;;;;;;67.97;39.93;;;;;;;3.29;100.00;101645.60;1457874;89;22111;-87
2023/01/01 07:53:05;;;;;;;66.87;38.73;;;;;;;3.37;100.00;101650.48;1462420;89;21397;-85
2023/01/01 07:55:33;;;;;;;63.40;39.80;;;;;;;3.48;100.00;101650.84;1447292;89;21361;-87
2023/01/01 07:57:59;;;;;;;62.37;35.43;;;;;;;3.58;100.00;101645.54;1454646;89;22343;-90
2023/01/01 08:00:26;;;;;;;48.20;31.50;;;;;;;3.65;100.00;101650.02;1460185;89;21354;-87
2023/01/01 08:02:52;;;;;;;57.03;33.53;;;;;;;3.67;100.00;101646.03;1443535;89;21500;-85
2023/01/01 08:05:19;;;;;;;54.10;31.83;;;;;;;3.65;100.00;101654.41;1454503;89;21418;-85
2023/01/01 08:07:50;;;;;;;42.73;30.50;;;;;;;3.65;100.00;101666.19;1456411;89;21346;-86
2023/01/01 08:10:21;;;;;;;49.48;34.18;;;;;;;3.65;100.00;101674.05;1454575;89;21421;-86
2023/01/01 08:12:48;;;;;;;51.33;33.60;;;;;;;3.71;100.00;101675.05;1444985;89;21435;-86
2023/01/01 08:15:16;;;;;;;51.50;36.57;;;;;;;3.75;100.00;101683.17;1455099;89;21463;-86
2023/01/01 08:17:43;;;;;;;49.27;32.63;;;;;;;3.82;100.00;101687.18;1453240;89;21532;-85
2023/01/01 08:20:09;;;;;;;46.63;33.67;;;;;;;3.93;100.00;101687.52;1449355;90;21419;-85
2023/01/01 08:22:36;;;;;;;53.13;33.93;;;;;;;4.05;100.00;101694.77;1450719;89;21440;-84
2023/01/01 08:25:02;;;;;;;44.90;32.27;;;;;;;4.20;100.00;101692.33;1459832;89;21434;-86
2023/01/01 08:27:28;;;;;;;51.33;38.13;;;;;;;4.33;100.00;101684.25;1455155;90;21539;-86
2023/01/01 08:29:54;;;;;;;49.90;35.23;;;;;;;4.47;100.00;101683.09;1449377;90;21427;-86
2023/01/01 08:32:20;;;;;;;55.00;34.87;;;;;;;4.67;100.00;101687.80;1456752;89;22219;-85
2023/01/01 08:34:47;;;;;;;58.47;39.23;;;;;;;4.80;100.00;101695.40;1454935;89;21633;-87
2023/01/01 08:37:13;;;;;;;61.17;43.37;;;;;;;4.93;100.00;101692.53;1460299;89;21376;-86
2023/01/01 08:39:40;;;;;;;67.13;45.47;;;;;;;5.11;100.00;101693.80;1455032;89;21457;-86
2023/01/01 08:42:06;;;;;;;63.33;41.43;;;;;;;5.29;100.00;101703.77;1457470;89;21376;-86
2023/01/01 08:44:32;;;;;;;56.73;39.60;;;;;;;5.50;100.00;101697.85;1457138;90;22167;-84
2023/01/01 08:46:59;;;;;;;51.27;37.03;;;;;;;5.73;100.00;101695.27;1453807;90;22745;-92
2023/01/01 08:49:25;;;;;;;62.97;43.83;;;;;;;6.00;100.00;101702.09;1450224;90;21243;-90
2023/01/01 08:51:51;;;;;;;60.47;39.27;;;;;;;6.18;100.00;101707.59;1451818;90;21331;-90
2023/01/01 08:54:17;;;;;;;58.73;42.30;;;;;;;6.37;100.00;101701.30;1442697;90;21412;-90
2023/01/01 08:56:43;;;;;;;63.30;43.57;;;;;;;6.52;100.00;101704.34;1447429;90;21541;-87
2023/01/01 08:59:09;;;;;;;58.30;41.77;;;;;;;6.65;100.00;101715.84;1453000;90;21338;-87
2023/01/01 09:01:35;;;;;;;65.77;44.60;;;;;;;6.80;100.00;101709.28;1456538;90;21346;-87
2023/01/01 09:04:01;;;;;;;70.13;48.77;;;;;;;6.93;100.00;101713.73;1452860;90;21516;-84
2023/01/01 09:06:28;;;;;;;71.83;49.33;;;;;;;7.09;100.00;101720.69;1456309;90;22254;-88
2023/01/01 09:08:54;;;;;;;53.63;37.30;;;;;;;7.22;100.00;101715.02;1453540;90;21354;-87
2023/01/01 09:11:26;;;;;;;48.93;35.63;;;;;;;7.39;100.00;101724.52;1453322;90;21541;-86
2023/01/01 09:13:53;;;;;;;42.73;32.03;;;;;;;7.45;100.00;101721.50;1452345;90;21412;-87
2023/01/01 09:16:21;;;;;;;38.23;27.80;;;;;;;7.53;100.00;101717.08;1447540;90;21339;-86
2023/01/01 09:18:47;;;;;;;40.80;30.30;;;;;;;7.54;100.00;101707.77;1455250;90;21417;-84
2023/01/01 09:21:13;;;;;;;34.20;25.37;;;;;;;7.69;100.00;101709.42;1456192;90;21441;-85
2023/01/01 09:23:40;;;;;;;35.70;23.37;;;;;;;7.83;100.00;101710.34;1450895;90;21449;-82
2023/01/01 09:26:09;;;;;;;38.60;25.37;;;;;;;7.93;100.00;101707.48;1457354;90;22265;-89
2023/01/01 09:28:37;;;;;;;35.30;26.10;;;;;;;8.07;100.00;101706.11;1450245;90;21545;-86
2023/01/01 09:31:05;;;;;;;33.73;23.40;;;;;;;8.14;100.00;101702.14;1449655;90;21574;-84
2023/01/01 09:33:33;;;;;;;37.93;25.60;;;;;;;8.27;100.00;101699.52;1457025;89;21634;-85
2023/01/01 09:36:30;;;;;;;33.37;24.10;;;;;;;8.39;100.00;101691.30;1451556;90;21442;-83
2023/01/01 09:38:58;;;;;;;31.27;23.20;;;;;;;8.57;100.00;101695.80;1453844;90;21493;-85
2023/01/01 09:41:54;;;;;;;36.90;23.50;;;;;;;8.83;100.00;101687.91;1456418;90;21316;-85
2023/01/01 09:44:50;;;;;;;39.63;28.57;;;;;;;9.02;100.00;101678.61;1452418;89;21575;-85
2023/01/01 09:47:39;;;;;;;73.83;55.13;;;;;;;9.31;100.00;101683.64;1448194;90;21556;-85
2023/01/01 09:50:14;;;;;;;41.73;28.17;;;;;;;9.79;100.00;101671.83;1448993;90;21412;-85
2023/01/01 09:52:48;;;;;;;47.97;29.30;;;;;;;10.67;100.00;101671.91;1457786;90;22210;-85
2023/01/01 09:55:31;;;;;;;33.63;25.33;;;;;;;11.37;99.51;101681.47;1450134;90;21583;-88
2023/01/01 09:57:58;;;;;;;38.07;26.07;;;;;;;11.82;97.58;101673.40;1454245;90;21353;-86
2023/01/01 10:00:25;;;;;;;33.40;28.63;;;;;;;12.33;95.16;101663.45;1450826;90;21427;-86
2023/01/01 10:03:21;;;;;;;33.03;24.10;;;;;;;12.65;93.25;101666.88;1450727;90;22284;-85
2023/01/01 10:06:10;;;;;;;27.70;22.20;;;;;;;12.99;92.06;101665.30;1447715;90;21413;-88
2023/01/01 10:09:10;;;;;;;35.03;23.97;;;;;;;13.39;91.50;101668.49;1457141;90;21412;-85
2023/01/01 10:11:59;;;;;;;;;;;;;;;13.59;87.97;101668.55;1462248;90;21604;-85
2023/01/01 10:14:47;;;;;;;18.33;12.63;;;;;;;13.36;80.72;101670.09;1460942;89;20351;-86
2023/01/01 10:17:31;;;;;;;22.20;14.40;;;;;;;13.23;80.06;101667.63;1453312;90;22266;-85
2023/01/01 10:20:05;;;;;;;17.27;11.43;;;;;;;13.20;79.52;101667.06;1446997;90;21463;-87
2023/01/01 10:22:40;;;;;;;18.67;13.77;;;;;;;13.08;77.61;101664.99;1447732;89;21493;-87
2023/01/01 10:25:20;;;;;;;24.27;19.07;;;;;;;13.05;79.22;101668.75;1457845;89;22300;-89
2023/01/01 10:28:06;;;;;;;31.52;19.85;;;;;;;13.08;76.41;101660.52;1453101;89;21631;-88
2023/01/01 10:30:32;;;;;;;41.63;29.00;;;;;;;13.23;77.79;101667.63;1455201;89;21449;-90
2023/01/01 10:32:59;;;;;;;27.83;19.10;;;;;;;13.31;76.29;101662.52;1447346;90;21375;-87
2023/01/01 10:35:37;;;;;;;20.47;14.90;;;;;;;13.45;77.49;101661.30;1456130;90;22499;-88
2023/01/01 10:38:04;;;;;;;20.20;11.73;;;;;;;13.52;76.00;101665.11;1446859;89;22411;-89
2023/01/01 10:40:32;;;;;;;22.17;13.47;;;;;;;13.60;76.96;101667.56;1456502;90;21556;-84
2023/01/01 10:43:02;;;;;;;19.60;12.13;;;;;;;13.51;76.18;101660.75;1462481;90;21435;-87
2023/01/01 10:45:34;;;;;;;17.52;12.43;;;;;;;13.54;77.29;101659.14;1453071;90;21471;-88
2023/01/01 10:48:20;;;;;;;20.83;13.70;;;;;;;13.58;77.85;101654.88;1452147;90;21434;-86
2023/01/01 10:50:58;;;;;;;17.50;11.87;;;;;;;13.67;76.77;101651.42;1456739;90;21338;-88
2023/01/01 10:53:44;;;;;;;25.17;12.87;;;;;;;13.77;77.79;101649.59;1454198;90;22337;-90
2023/01/01 10:56:18;;;;;;;20.17;13.33;;;;;;;13.67;75.87;101648.27;1455040;90;21560;-89
2023/01/01 10:58:55;;;;;;;20.47;12.30;;;;;;;13.57;75.10;101645.23;1454752;89;21294;-87
2023/01/01 11:01:31;;;;;;;15.77;10.63;;;;;;;13.47;75.61;101640.73;1449898;89;22270;-86
2023/01/01 11:04:15;;;;;;;17.73;12.00;;;;;;;13.28;75.82;101640.68;1452719;90;21369;-86
2023/01/01 11:06:46;;;;;;;17.17;13.50;;;;;;;13.10;76.61;101637.31;1453726;90;21472;-86
2023/01/01 11:09:27;;;;;;;17.47;12.40;;;;;;;13.02;77.51;101641.12;1450820;90;21457;-86
2023/01/01 11:12:01;;;;;;;19.42;13.10;;;;;;;12.93;78.18;101644.58;1456083;90;21559;-87
2023/01/01 11:14:43;;;;;;;20.10;14.40;;;;;;;12.81;77.92;101647.81;1450736;89;22211;-88
2023/01/01 11:17:10;;;;;;;24.50;17.10;;;;;;;12.71;78.16;101648.73;1456245;90;21391;-90
2023/01/01 11:19:40;;;;;;;26.57;17.07;;;;;;;12.55;78.67;101643.41;1451625;90;21587;-86
2023/01/01 11:22:07;;;;;;;25.90;17.23;;;;;;;12.46;78.62;101642.88;1452418;90;22300;-86
2023/01/01 11:24:35;;;;;;;18.63;14.50;;;;;;;12.38;78.79;101644.01;1444715;90;21574;-87
2023/01/01 11:27:18;;;;;;;20.13;14.50;;;;;;;12.39;79.67;101641.20;1456991;90;21317;-87
2023/01/01 11:29:44;;;;;;;20.20;14.13;;;;;;;12.45;79.55;101642.99;1453582;90;21537;-89
2023/01/01 11:32:16;;;;;;;21.57;13.83;;;;;;;12.54;79.57;101641.71;1457306;90;22285;-87